This is the latest recevied weather packets stored in our database for station/object GW1480. If no packets are shown the sender has not sent any weather packets the latest 10 day(s).
| Time | Temp. | Humidity | Pressure | Rain* | Wind** | Luminosity | Snow |
|---|---|---|---|---|---|---|---|
| 1777753284 | 12.22° C | 53% | 1017.6 hPa | 0 mm | - | - | - |
| 1777748971 | 13.33° C | 52% | 1018.2 hPa | 0 mm | - | - | - |
| 1777743230 | 12.78° C | 47% | 1018.6 hPa | 0 mm | - | - | - |
| 1777740341 | 12.22° C | 49% | 1018.9 hPa | 0 mm | - | - | - |
| 1777739970 | 12.22° C | 54% | 1019.3 hPa | 0 mm | - | - | - |
| 1777736750 | 13.33° C | 53% | 1019.3 hPa | 0 mm | - | - | - |
| 1777733504 | 12.78° C | 57% | 1019.6 hPa | 0 mm | - | - | - |
| 1777729880 | 11.11° C | 70% | 1019.3 hPa | 0 mm | - | - | - |
| 1777729515 | 10.56° C | 68% | 1019.3 hPa | 0 mm | - | - | - |
| 1777727713 | 8.89° C | 83% | 1019.3 hPa | 0 mm | - | - | - |
| 1777725575 | 4.44° C | 98% | 1019.6 hPa | 0 mm | - | - | - |
| 1777724847 | 3.33° C | 98% | 1019.3 hPa | 0 mm | - | - | - |
| 1777723763 | 2.22° C | 98% | 1019.6 hPa | 0 mm | - | - | - |
| 1777721617 | 1.11° C | 98% | 1019.6 hPa | 0 mm | - | - | - |
| 1777720521 | 0.56° C | 98% | 1018.9 hPa | 0 mm | - | - | - |
| 1777719111 | 0.56° C | 98% | 1018.9 hPa | 0 mm | - | - | - |
| 1777718384 | 0.56° C | 98% | 1018.6 hPa | 0 mm | - | - | - |
| 1777715864 | 0.56° C | 98% | 1019.3 hPa | 0 mm | - | - | - |
| 1777715125 | 1.11° C | 98% | 1019.6 hPa | 0 mm | - | - | - |
| 1777714411 | 1.11° C | 98% | 1019.3 hPa | 0 mm | - | - | - |
| 1777713351 | 1.11° C | 98% | 1019.3 hPa | 0 mm | - | - | - |
| 1777711177 | 1.11° C | 98% | 1019.3 hPa | 0 mm | - | - | - |
| 1777709024 | 1.11° C | 98% | 1019.3 hPa | 0 mm | - | - | - |
| 1777705418 | 2.22° C | 97% | 1018.9 hPa | 0 mm | - | - | - |
| 1777705032 | 2.22° C | 97% | 1018.9 hPa | 0 mm | - | - | - |
* Rain since midnight (hover to see other rain measurements)
** Current wind speed in m/s (hover to see current wind gust speed)